Pittsburgh, PA (15212)

10:56 PM EST on February 10, 2016 (GMT -0500)
Perry South | | Change Station
CLOSE
Current Station
Personal Weather Station
Location: Pittsburgh, PA
Elevation: 1037 ft
Nearby Weather Stations

Elev 1037 ft 40.46 °N, 80.01 °W | Updated 12 minutes ago

Overcast
Overcast
15.3 °F
Feels Like 7 °F
N
5.8
Wind Variable Wind from SW

Today
High -- | Low -- °F
--% Chance of Precip.
Yesterday
High -- | Low -- °F
Precip. -- in
Pressure 29.99 in
Visibility 10.0 miles
Clouds Few 1800 ft
Windchill 7 °F
Dew Point 11 °F
Humidity 82%
Rainfall 0.00 in
Snow Depth Not available.
7:20 AM 5:48 PM
Waxing Crescent, 9% visible
METAR KAGC 110353Z 25017G21KT 10SM FEW018 M09/M13 A2991 RMK AO2 SLP154 T10891133
Pressure 29.99 in
Visibility 10.0 miles
Clouds Few 1800 ft
Windchill 7 °F
Dew Point 11 °F
Humidity 82%
Rainfall 0.00 in
Snow Depth Not available.
7:20 AM 5:48 PM
Waxing Crescent, 9% visible
METAR KAGC 110353Z 25017G21KT 10SM FEW018 M09/M13 A2991 RMK AO2 SLP154 T10891133

10-Day Weather Forecast

Almanac

Astronomy

Feb. 10, 2016 Rise Set
Actual Time
Civil Twilight
Nautical Twilight
Astronomical Twilight
Moon
Length of Visible Light
Length of Day
Tomorrow will be .
, % of the Moon is Illuminated

Today's Extremes

State Highs State Lows

Community

WunderPhotos

Upload Photos

1,892,000 photos uploaded!

WunderBlog® & News

Nearby

Air Quality

  Air Quality AQ Index Pollutant
Not available.

Snow Depth

Station Depth Elevation

Earthquake Activity

City Distance Mag. Time & Date
Minimum magnitude displayed is 2.5.

Coastal Water Temperatures

Place Temperature

Stations

Nearby Weather Stations

Station Location Temp. Windchill Dew Point Humidity Wind Precip. Elev Updated Type
                   

Watches & Warnings

Winter Weather Advisory
Issued: 10:33 PM EST Feb. 10, 2016 – National Weather Service

... Winter Weather Advisory remains in effect until 7 am EST
Thursday...

* additional snow accumulation... 1 to 2 inches.

* Snow ending... snow showers will gradually diminish late
tonight.

* Impacts... hazardous travel conditions are expected due to snow.

Precautionary/preparedness actions...

A Winter Weather Advisory means that periods of snow... sleet... or
freezing rain will cause travel difficulties. Be prepared for
slippery roads and limited visibilities... and use caution while
driving.